createdAt,value
2018-09-15T00:00:35.538Z,25.50
2018-09-15T00:03:04.121Z,26.30
2018-09-15T00:05:32.712Z,26.30
2018-09-15T00:08:02.660Z,26.83
2018-09-15T00:10:31.152Z,24.47
2018-09-15T00:12:59.831Z,21.43
2018-09-15T00:15:29.755Z,24.90
2018-09-15T00:17:59.586Z,23.37
2018-09-15T00:20:28.195Z,22.50
2018-09-15T00:22:56.815Z,25.27
2018-09-15T00:25:25.323Z,20.70
2018-09-15T00:27:53.975Z,21.27
2018-09-15T00:30:22.498Z,23.20
2018-09-15T00:32:50.962Z,21.90
2018-09-15T00:35:19.446Z,20.43
2018-09-15T00:37:48.339Z,20.70
2018-09-15T00:40:17.495Z,21.37
2018-09-15T00:42:46.029Z,20.83
2018-09-15T00:50:09.522Z,21.10
2018-09-15T00:52:37.998Z,19.13
2018-09-15T00:55:06.505Z,17.83
2018-09-15T00:57:35.503Z,19.53
2018-09-15T01:00:04.634Z,18.70
2018-09-15T01:02:33.090Z,16.70
2018-09-15T01:05:01.593Z,16.40
2018-09-15T01:07:31.083Z,18.17
2018-09-15T01:09:59.570Z,17.20
2018-09-15T01:12:28.089Z,15.67
2018-09-15T01:14:56.565Z,15.60
2018-09-15T01:17:25.065Z,16.60
2018-09-15T01:19:53.950Z,16.37
2018-09-15T01:22:22.421Z,15.50
2018-09-15T01:24:50.922Z,14.10
2018-09-15T01:27:19.458Z,13.93
2018-09-15T01:29:48.290Z,14.13
2018-09-15T01:32:17.370Z,13.53
2018-09-15T01:34:45.881Z,13.60
2018-09-15T01:43:18.778Z,13.40
2018-09-15T01:45:47.809Z,12.63
2018-09-15T01:48:17.445Z,12.60
2018-09-15T01:50:46.015Z,12.57
2018-09-15T01:58:07.214Z,13.70
2018-09-15T02:00:35.691Z,13.67
2018-09-15T02:03:04.432Z,14.73
2018-09-15T02:05:33.454Z,14.03
2018-09-15T02:08:01.930Z,11.80
2018-09-15T02:10:30.419Z,12.15
2018-09-15T02:12:58.934Z,9.30
2018-09-15T02:15:27.452Z,10.63
2018-09-15T02:17:56.009Z,11.50
2018-09-15T02:20:24.549Z,11.45
2018-09-15T02:22:54.071Z,10.50
2018-09-15T02:25:22.537Z,10.40
2018-09-15T02:27:51.394Z,10.30
2018-09-15T02:30:19.854Z,9.10
2018-09-15T02:32:48.314Z,10.20
2018-09-15T02:35:17.433Z,10.47
2018-09-15T02:37:45.906Z,10.40
2018-09-15T02:45:08.943Z,11.00
2018-09-15T02:47:37.994Z,10.30
2018-09-15T02:50:07.074Z,9.20
2018-09-15T02:52:35.586Z,10.60
2018-09-15T02:55:04.211Z,10.10
2018-09-15T02:57:32.685Z,10.15
2018-09-15T03:00:01.244Z,9.23
2018-09-15T03:02:29.697Z,10.27
2018-09-15T03:04:58.178Z,10.47
2018-09-15T03:07:27.017Z,10.78
2018-09-15T03:09:55.519Z,11.68
2018-09-15T03:12:24.018Z,11.13
2018-09-15T03:14:52.559Z,11.73
2018-09-15T03:17:21.046Z,11.93
2018-09-15T03:19:49.577Z,11.10
2018-09-15T03:22:18.174Z,11.77
2018-09-15T03:24:47.769Z,11.57
2018-09-15T03:27:17.369Z,12.23
2018-09-15T03:29:46.507Z,12.67
2018-09-15T03:37:08.038Z,11.83
2018-09-15T03:39:36.519Z,12.77
2018-09-15T03:42:05.067Z,13.00
2018-09-15T03:44:33.571Z,11.43
2018-09-15T03:47:02.055Z,11.77
2018-09-15T03:49:31.186Z,11.50
2018-09-15T03:52:00.162Z,9.68
2018-09-15T03:54:30.423Z,13.62
2018-09-15T03:56:58.898Z,12.90
2018-09-15T03:59:27.434Z,11.83
2018-09-15T04:01:55.910Z,12.47
2018-09-15T04:04:24.395Z,13.75
2018-09-15T04:06:52.891Z,11.67
2018-09-15T04:09:21.348Z,11.98
2018-09-15T04:11:49.836Z,14.30
2018-09-15T04:14:18.923Z,14.70
2018-09-15T04:16:47.449Z,14.33
2018-09-15T04:24:09.711Z,15.00
2018-09-15T04:26:38.354Z,14.23
2018-09-15T04:29:06.969Z,14.00
2018-09-15T04:31:35.959Z,13.70
2018-09-15T04:34:04.828Z,13.62
2018-09-15T04:36:33.336Z,15.28
2018-09-15T04:39:01.843Z,16.50
2018-09-15T04:41:30.310Z,15.17
2018-09-15T04:43:58.790Z,14.27
2018-09-15T04:46:27.298Z,14.30
2018-09-15T04:48:55.783Z,12.43
2018-09-15T04:51:24.657Z,13.65
2018-09-15T04:53:53.716Z,13.27
2018-09-15T04:56:22.189Z,13.50
2018-09-15T04:58:50.712Z,13.63
2018-09-15T05:01:19.422Z,14.40
2018-09-15T05:03:47.906Z,12.40
2018-09-15T05:06:17.413Z,12.43
2018-09-15T05:08:45.915Z,11.87
2018-09-15T05:16:08.404Z,13.53
2018-09-15T05:18:36.923Z,16.27
2018-09-15T05:21:05.444Z,14.73
2018-09-15T05:23:33.934Z,19.35
2018-09-15T05:26:02.406Z,21.42
2018-09-15T05:28:30.866Z,23.23
2018-09-15T05:30:59.376Z,23.97
2018-09-15T05:33:27.842Z,27.17
2018-09-15T05:35:56.327Z,27.13
2018-09-15T05:38:25.242Z,28.23
2018-09-15T05:40:53.742Z,27.73
2018-09-15T05:43:22.224Z,28.92
2018-09-15T05:45:50.730Z,23.90
2018-09-15T05:48:19.198Z,29.07
2018-09-15T05:50:47.678Z,33.67
2018-09-15T05:53:17.948Z,33.13
2018-09-15T05:55:46.753Z,33.35
2018-09-15T06:03:09.060Z,33.93
2018-09-15T06:05:37.550Z,48.60
2018-09-15T06:08:06.358Z,35.43
2018-09-15T06:10:34.921Z,34.88
2018-09-15T06:13:03.866Z,37.40
2018-09-15T06:15:32.353Z,36.93
2018-09-15T06:18:01.468Z,35.20
2018-09-15T06:20:29.941Z,35.08
2018-09-15T06:22:58.418Z,35.40
2018-09-15T06:25:27.805Z,36.83
2018-09-15T06:27:56.313Z,35.20
2018-09-15T06:30:24.818Z,34.37
2018-09-15T06:32:53.333Z,35.07
2018-09-15T06:35:21.845Z,33.83
2018-09-15T06:37:50.396Z,34.43
2018-09-15T06:40:19.479Z,34.57
2018-09-15T06:42:48.041Z,33.80
2018-09-15T06:45:18.779Z,31.87
2018-09-15T06:47:47.609Z,30.77
2018-09-15T06:55:10.709Z,29.97
2018-09-15T06:57:39.193Z,30.47
2018-09-15T07:00:07.787Z,30.47
2018-09-15T07:02:36.309Z,30.23
2018-09-15T07:05:04.946Z,29.80
2018-09-15T07:07:33.655Z,28.05
2018-09-15T07:10:02.293Z,28.20
2018-09-15T07:12:30.947Z,28.02
2018-09-15T07:14:59.702Z,28.32
2018-09-15T07:17:28.255Z,28.60
2018-09-15T07:19:56.777Z,27.15
2018-09-15T07:22:25.391Z,30.00
2018-09-15T07:24:54.213Z,27.30
2018-09-15T07:27:22.773Z,28.27
2018-09-15T07:29:51.230Z,26.83
2018-09-15T07:32:20.065Z,26.17
2018-09-15T07:34:48.775Z,27.20
2018-09-15T07:37:17.515Z,27.00
2018-09-15T07:39:46.448Z,26.93
2018-09-15T07:52:07.918Z,29.17
2018-09-15T07:54:37.562Z,28.07
2018-09-15T07:57:06.477Z,30.90
2018-09-15T07:59:35.074Z,28.10
2018-09-15T08:02:07.941Z,29.60
2018-09-15T08:04:36.562Z,27.70
2018-09-15T08:07:05.158Z,28.30
2018-09-15T08:09:33.778Z,28.50
2018-09-15T08:12:02.634Z,28.80
2018-09-15T08:14:31.146Z,27.67
2018-09-15T08:16:59.698Z,29.87
2018-09-15T08:19:28.305Z,28.90
2018-09-15T08:21:56.874Z,29.40
2018-09-15T08:24:25.544Z,28.05
2018-09-15T08:26:54.158Z,28.57
2018-09-15T08:29:22.703Z,27.77
2018-09-15T08:31:51.440Z,29.43
2018-09-15T08:34:21.329Z,26.67
2018-09-15T08:36:49.871Z,27.30
2018-09-15T08:39:18.426Z,28.17
2018-09-15T08:41:46.983Z,26.47
2018-09-15T08:49:09.110Z,26.07
2018-09-15T08:51:37.646Z,26.63
2018-09-15T08:54:06.114Z,25.90
2018-09-15T08:56:34.982Z,25.90
2018-09-15T08:59:03.846Z,25.12
2018-09-15T09:01:34.602Z,24.40
2018-09-15T09:04:03.099Z,25.50
2018-09-15T09:06:31.652Z,24.20
2018-09-15T09:09:00.125Z,24.67
2018-09-15T09:11:28.655Z,24.90
2018-09-15T09:13:57.172Z,25.37
2018-09-15T09:16:25.666Z,25.33
2018-09-15T09:18:54.399Z,25.20
2018-09-15T09:21:22.911Z,25.23
2018-09-15T09:23:51.406Z,24.10
2018-09-15T09:26:20.003Z,27.10
2018-09-15T09:28:50.162Z,24.98
2018-09-15T09:31:18.668Z,27.97
2018-09-15T09:33:47.167Z,25.33
2018-09-15T09:36:17.462Z,26.60
2018-09-15T09:38:45.929Z,23.43
2018-09-15T09:46:14.905Z,20.03
2018-09-15T09:48:43.361Z,22.10
2018-09-15T09:51:11.819Z,20.57
2018-09-15T09:53:40.341Z,20.17
2018-09-15T09:56:08.866Z,21.53
2018-09-15T09:58:37.378Z,22.45
2018-09-15T10:01:12.047Z,22.20
2018-09-15T10:03:40.519Z,22.03
2018-09-15T10:06:09.083Z,21.50
2018-09-15T10:08:38.123Z,22.67
2018-09-15T10:11:06.654Z,21.63
2018-09-15T10:13:35.167Z,22.37
2018-09-15T10:16:03.856Z,23.17
2018-09-15T10:18:32.253Z,23.63
2018-09-15T10:21:00.774Z,21.83
2018-09-15T10:23:29.347Z,20.50
2018-09-15T10:25:57.851Z,21.50
2018-09-15T10:28:26.401Z,21.23
2018-09-15T10:30:59.586Z,17.90
2018-09-15T10:33:28.530Z,18.95
2018-09-15T10:35:57.020Z,18.13
2018-09-15T10:38:25.639Z,23.55
2018-09-15T10:40:54.090Z,19.10
2018-09-15T10:43:23.802Z,20.23
2018-09-15T10:45:52.364Z,22.83
2018-09-15T10:48:20.837Z,22.80
2018-09-15T10:50:49.313Z,20.97
2018-09-15T10:53:18.203Z,22.03
2018-09-15T10:55:46.665Z,22.33
2018-09-15T11:03:17.054Z,21.80
2018-09-15T11:05:45.626Z,22.87
2018-09-15T11:13:09.668Z,18.20
2018-09-15T11:15:38.998Z,16.13
2018-09-15T11:18:07.685Z,16.07
2018-09-15T11:20:36.233Z,16.67
2018-09-15T11:23:05.424Z,17.03
2018-09-15T11:25:34.014Z,18.30
2018-09-15T11:28:02.500Z,20.35
2018-09-15T11:30:30.983Z,19.00
2018-09-15T11:32:59.449Z,17.40
2018-09-15T11:35:27.993Z,19.17
2018-09-15T11:37:56.458Z,18.20
2018-09-15T11:40:25.089Z,22.00
2018-09-15T11:42:53.622Z,22.93
2018-09-15T11:45:22.204Z,23.47
2018-09-15T11:47:50.768Z,21.97
2018-09-15T11:50:19.406Z,21.30
2018-09-15T11:52:48.434Z,21.90
2018-09-15T11:55:19.026Z,20.44
2018-09-15T11:57:47.744Z,20.30
2018-09-15T12:00:21.570Z,18.60
2018-09-15T12:02:50.162Z,15.93
2018-09-15T12:05:19.477Z,14.70
2018-09-15T12:07:49.380Z,15.87
2018-09-15T12:10:18.379Z,16.37
2018-09-15T12:12:46.878Z,16.67
2018-09-15T12:20:10.485Z,15.77
2018-09-15T12:22:38.991Z,15.43
2018-09-15T12:25:07.755Z,14.95
2018-09-15T12:27:36.254Z,16.23
2018-09-15T12:30:04.874Z,14.97
2018-09-15T12:32:33.346Z,14.63
2018-09-15T12:35:04.211Z,14.27
2018-09-15T12:37:32.721Z,13.03
2018-09-15T12:40:01.303Z,12.90
2018-09-15T12:42:30.094Z,13.17
2018-09-15T12:44:59.262Z,13.87
2018-09-15T12:47:28.224Z,13.43
2018-09-15T12:49:56.993Z,13.80
2018-09-15T12:52:25.531Z,12.90
2018-09-15T12:54:53.958Z,12.87
2018-09-15T12:57:22.874Z,12.87
2018-09-15T12:59:51.353Z,13.22
2018-09-15T13:02:19.853Z,11.90
2018-09-15T13:04:48.947Z,12.85
2018-09-15T13:07:18.327Z,13.00
2018-09-15T13:09:49.930Z,14.57
2018-09-15T13:12:18.512Z,13.50
2018-09-15T13:14:46.981Z,13.20
2018-09-15T13:22:13.770Z,11.50
2018-09-15T13:24:42.454Z,12.03
2018-09-15T13:27:10.961Z,12.20
2018-09-15T13:29:40.091Z,10.77
2018-09-15T13:32:08.792Z,10.60
2018-09-15T13:34:37.262Z,9.60
2018-09-15T13:37:06.900Z,9.53
2018-09-15T13:39:35.386Z,10.20
2018-09-15T13:42:03.897Z,9.20
2018-09-15T13:44:32.886Z,9.50
2018-09-15T13:47:01.355Z,10.48
2018-09-15T13:49:29.850Z,8.77
2018-09-15T13:51:58.370Z,10.70
2018-09-15T13:54:26.875Z,9.03
2018-09-15T13:56:55.557Z,10.23
2018-09-15T13:59:25.880Z,10.00
2018-09-15T14:01:54.736Z,9.80
2018-09-15T14:04:23.921Z,10.00
2018-09-15T14:06:52.491Z,9.70
2018-09-15T14:09:21.783Z,10.32
2018-09-15T14:11:50.284Z,10.00
2018-09-15T14:14:18.810Z,10.70
2018-09-15T14:16:47.300Z,8.83
2018-09-15T14:19:17.494Z,9.95
2018-09-15T14:21:46.282Z,11.27
2018-09-15T14:29:14.033Z,10.40
2018-09-15T14:31:42.509Z,9.50
2018-09-15T14:34:11.097Z,9.10
2018-09-15T14:36:39.642Z,9.37
2018-09-15T14:39:09.838Z,8.70
2018-09-15T14:41:38.308Z,9.23
2018-09-15T14:44:06.873Z,9.17
2018-09-15T14:46:35.366Z,10.13
2018-09-15T14:49:03.861Z,11.43
2018-09-15T14:51:33.099Z,11.50
2018-09-15T14:54:01.587Z,10.87
2018-09-15T14:56:30.083Z,11.15
2018-09-15T14:58:58.608Z,10.93
2018-09-15T15:01:27.108Z,10.40
2018-09-15T15:03:55.615Z,9.87
2018-09-15T15:06:24.142Z,10.28
2018-09-15T15:08:52.605Z,10.47
2018-09-15T15:11:22.178Z,10.78
2018-09-15T15:13:51.038Z,9.80
2018-09-15T15:16:20.175Z,9.70
2018-09-15T15:18:48.830Z,10.00
2018-09-15T15:21:18.142Z,9.13
2018-09-15T15:23:46.665Z,10.27
2018-09-15T15:31:09.317Z,8.37
2018-09-15T15:33:37.881Z,8.60
2018-09-15T15:36:06.437Z,8.13
2018-09-15T15:38:34.978Z,9.33
2018-09-15T15:41:04.159Z,9.38
2018-09-15T15:43:32.892Z,9.57
2018-09-15T15:46:01.402Z,9.30
2018-09-15T15:48:29.891Z,11.40
2018-09-15T15:50:58.421Z,11.57
2018-09-15T15:53:28.005Z,10.50
2018-09-15T15:55:57.074Z,10.87
2018-09-15T15:58:25.596Z,10.50
2018-09-15T16:00:54.157Z,10.87
2018-09-15T16:03:24.340Z,10.37
2018-09-15T16:05:52.830Z,10.80
2018-09-15T16:08:21.356Z,9.78
2018-09-15T16:10:49.874Z,10.60
2018-09-15T16:13:19.507Z,9.37
2018-09-15T16:15:48.466Z,9.20
2018-09-15T16:18:17.474Z,9.23
2018-09-15T16:20:46.004Z,9.00
2018-09-15T16:28:08.005Z,9.23
2018-09-15T16:30:36.585Z,9.40
2018-09-15T16:33:05.099Z,9.57
2018-09-15T16:35:34.835Z,10.07
2018-09-15T16:38:03.330Z,9.97
2018-09-15T16:40:32.323Z,9.47
2018-09-15T16:43:00.988Z,9.70
2018-09-15T16:45:29.504Z,9.67
2018-09-15T16:47:58.002Z,9.00
2018-09-15T16:50:26.548Z,10.08
2018-09-15T16:52:55.044Z,10.57
2018-09-15T16:58:26.235Z,9.57
2018-09-15T17:00:54.756Z,9.00
2018-09-15T17:03:23.754Z,8.90
2018-09-15T17:05:52.422Z,8.90
2018-09-15T17:08:21.326Z,9.30
2018-09-15T17:10:49.871Z,9.20
2018-09-15T17:13:18.458Z,9.48
2018-09-15T17:15:47.861Z,9.80
2018-09-15T17:18:17.506Z,9.18
2018-09-15T17:20:46.056Z,9.70
2018-09-15T17:28:10.229Z,9.30
2018-09-15T17:30:39.171Z,9.63
2018-09-15T17:33:08.124Z,9.50
2018-09-15T17:35:36.715Z,10.40
2018-09-15T17:38:05.317Z,10.47
2018-09-15T17:40:34.353Z,10.15
2018-09-15T17:43:03.096Z,10.57
2018-09-15T17:45:31.635Z,9.93
2018-09-15T17:48:00.142Z,12.67
2018-09-15T17:50:28.642Z,11.40
2018-09-15T17:52:57.110Z,13.70
2018-09-15T17:55:25.615Z,15.73
2018-09-15T17:57:54.122Z,14.60
2018-09-15T18:00:22.599Z,13.73
2018-09-15T18:02:51.146Z,14.37
2018-09-15T18:05:19.814Z,14.30
2018-09-15T18:07:48.325Z,13.30
2018-09-15T18:10:17.674Z,13.37
2018-09-15T18:12:46.189Z,13.20
2018-09-15T18:20:10.582Z,14.90
2018-09-15T18:22:39.309Z,16.17
2018-09-15T18:25:07.817Z,15.17
2018-09-15T18:27:36.357Z,17.60
2018-09-15T18:30:05.519Z,20.10
2018-09-15T18:32:34.433Z,16.27
2018-09-15T18:35:03.078Z,16.33
2018-09-15T18:37:31.701Z,16.80
2018-09-15T18:40:02.580Z,15.97
2018-09-15T18:42:31.152Z,17.23
2018-09-15T18:44:59.723Z,15.93
2018-09-15T18:47:28.318Z,15.45
2018-09-15T18:49:57.162Z,16.27
2018-09-15T18:52:27.456Z,19.20
2018-09-15T18:54:56.957Z,19.83
2018-09-15T18:57:25.886Z,17.95
2018-09-15T18:59:54.738Z,20.57
2018-09-15T19:02:23.213Z,20.65
2018-09-15T19:04:51.857Z,18.67
2018-09-15T19:07:20.378Z,18.15
2018-09-15T19:09:48.884Z,18.93
2018-09-15T19:12:18.330Z,18.60
2018-09-15T19:14:47.220Z,18.50
2018-09-15T19:22:10.038Z,22.70
2018-09-15T19:24:38.696Z,24.10
2018-09-15T19:27:07.266Z,19.67
2018-09-15T19:29:36.662Z,21.73
2018-09-15T19:32:05.130Z,23.20
2018-09-15T19:34:33.861Z,22.35
2018-09-15T19:37:02.439Z,23.00
2018-09-15T19:39:30.926Z,21.60
2018-09-15T19:41:59.405Z,23.03
2018-09-15T19:44:27.921Z,22.30
2018-09-15T19:46:56.411Z,19.62
2018-09-15T19:49:24.886Z,21.60
2018-09-15T19:51:53.590Z,19.87
2018-09-15T19:54:22.071Z,22.87
2018-09-15T19:56:50.585Z,21.43
2018-09-15T19:59:19.274Z,20.63
2018-09-15T20:01:47.936Z,21.00
2018-09-15T20:04:17.512Z,21.97
2018-09-15T20:06:46.858Z,21.90
2018-09-15T20:14:09.132Z,19.30
2018-09-15T20:16:36.679Z,18.10
2018-09-15T20:19:04.165Z,19.80
2018-09-15T20:21:31.750Z,19.00
2018-09-15T20:24:00.984Z,18.97
2018-09-15T20:26:29.450Z,21.17
2018-09-15T20:28:58.108Z,21.73
2018-09-15T20:31:26.586Z,22.07
2018-09-15T20:33:55.051Z,22.20
2018-09-15T20:36:23.818Z,24.30
2018-09-15T20:38:52.378Z,22.73
2018-09-15T20:41:21.129Z,24.67
2018-09-15T20:43:49.720Z,25.43
2018-09-15T20:46:18.186Z,22.00
2018-09-15T20:48:47.710Z,24.30
2018-09-15T20:51:17.517Z,23.52
2018-09-15T20:53:45.992Z,24.10
2018-09-15T20:57:23.141Z,24.30
2018-09-15T20:59:51.669Z,21.07
2018-09-15T21:02:20.128Z,21.27
2018-09-15T21:04:48.661Z,21.13
2018-09-15T21:07:17.349Z,22.63
2018-09-15T21:09:45.818Z,21.20
2018-09-15T21:17:08.634Z,21.80
2018-09-15T21:19:37.197Z,22.53
2018-09-15T21:22:05.769Z,22.60
2018-09-15T21:24:34.997Z,21.25
2018-09-15T21:27:03.786Z,19.10
2018-09-15T21:29:32.256Z,22.70
2018-09-15T21:32:01.061Z,21.10
2018-09-15T21:34:29.572Z,20.07
2018-09-15T21:36:58.083Z,22.83
2018-09-15T21:39:26.641Z,23.70
2018-09-15T21:41:55.135Z,21.27
2018-09-15T21:44:23.617Z,22.07
2018-09-15T21:46:52.149Z,25.10
2018-09-15T21:49:20.651Z,25.65
2018-09-15T21:51:51.521Z,24.50
2018-09-15T21:54:20.047Z,25.83
2018-09-15T21:56:48.598Z,23.90
2018-09-15T21:59:17.386Z,24.20
2018-09-15T22:01:45.952Z,24.37
2018-09-15T22:09:09.590Z,22.77
2018-09-15T22:11:38.074Z,25.37
2018-09-15T22:14:06.590Z,23.27
2018-09-15T22:16:35.134Z,25.67
2018-09-15T22:19:03.630Z,27.57
2018-09-15T22:21:32.107Z,25.10
2018-09-15T22:24:00.838Z,25.80
2018-09-15T22:26:30.157Z,27.17
2018-09-15T22:28:58.641Z,27.20
2018-09-15T22:31:27.327Z,25.37
2018-09-15T22:33:55.859Z,25.50
2018-09-15T22:36:24.688Z,23.93
2018-09-15T22:38:53.194Z,24.70
2018-09-15T22:41:21.716Z,24.77
2018-09-15T22:43:50.294Z,25.43
2018-09-15T22:46:18.901Z,27.50
2018-09-15T22:48:48.334Z,26.55
2018-09-15T22:51:17.405Z,28.17
2018-09-15T22:53:45.928Z,28.23
2018-09-15T22:57:22.322Z,28.12
2018-09-15T22:59:50.828Z,25.47
2018-09-15T23:02:19.325Z,26.82
2018-09-15T23:04:47.996Z,24.90
2018-09-15T23:07:17.890Z,26.60
2018-09-15T23:09:46.415Z,26.73
2018-09-15T23:17:08.173Z,25.30
2018-09-15T23:19:36.702Z,27.83
2018-09-15T23:22:05.659Z,26.50
2018-09-15T23:24:34.779Z,24.80
2018-09-15T23:27:03.786Z,26.77
2018-09-15T23:29:32.297Z,28.20
2018-09-15T23:32:00.803Z,28.37
2018-09-15T23:34:29.305Z,26.68
2018-09-15T23:36:57.804Z,29.90
2018-09-15T23:39:26.343Z,27.47
2018-09-15T23:41:54.821Z,29.27
2018-09-15T23:44:23.300Z,27.03
2018-09-15T23:46:52.138Z,30.27
2018-09-15T23:49:20.630Z,30.97
2018-09-15T23:51:49.119Z,31.83
2018-09-15T23:54:17.624Z,31.40
2018-09-15T23:56:46.134Z,33.10
